sensor_id;sensor_type;location;lat;lon;timestamp;P1;durP1;ratioP1;P2;durP2;ratioP2
44516;SDS011;30223;17.182;-96.766;2023-02-10T00:01:11;8.20;;;6.47;;
44516;SDS011;30223;17.182;-96.766;2023-02-10T00:03:42;9.75;;;7.35;;
44516;SDS011;30223;17.182;-96.766;2023-02-10T00:06:10;10.13;;;6.93;;
44516;SDS011;30223;17.182;-96.766;2023-02-10T00:08:38;10.07;;;6.60;;
44516;SDS011;30223;17.182;-96.766;2023-02-10T00:11:08;8.68;;;6.40;;
44516;SDS011;30223;17.182;-96.766;2023-02-10T00:16:04;9.38;;;6.10;;
44516;SDS011;30223;17.182;-96.766;2023-02-10T00:18:31;10.80;;;6.93;;
44516;SDS011;30223;17.182;-96.766;2023-02-10T00:21:32;8.45;;;6.78;;
44516;SDS011;30223;17.182;-96.766;2023-02-10T00:23:51;11.57;;;6.90;;
44516;SDS011;30223;17.182;-96.766;2023-02-10T00:26:18;8.43;;;6.10;;
44516;SDS011;30223;17.182;-96.766;2023-02-10T00:28:45;10.13;;;6.78;;
44516;SDS011;30223;17.182;-96.766;2023-02-10T00:31:12;9.75;;;6.38;;
44516;SDS011;30223;17.182;-96.766;2023-02-10T00:33:43;12.15;;;6.30;;
44516;SDS011;30223;17.182;-96.766;2023-02-10T00:36:11;9.75;;;6.53;;
44516;SDS011;30223;17.182;-96.766;2023-02-10T00:38:40;10.32;;;6.93;;
44516;SDS011;30223;17.182;-96.766;2023-02-10T00:43:39;9.90;;;6.47;;
44516;SDS011;30223;17.182;-96.766;2023-02-10T00:46:07;9.35;;;5.68;;
44516;SDS011;30223;17.182;-96.766;2023-02-10T00:48:34;9.27;;;6.15;;
44516;SDS011;30223;17.182;-96.766;2023-02-10T00:51:01;7.07;;;5.78;;
44516;SDS011;30223;17.182;-96.766;2023-02-10T00:53:29;10.38;;;6.82;;
44516;SDS011;30223;17.182;-96.766;2023-02-10T00:55:56;7.72;;;5.65;;
44516;SDS011;30223;17.182;-96.766;2023-02-10T00:58:23;8.93;;;5.95;;
44516;SDS011;30223;17.182;-96.766;2023-02-10T01:00:50;8.02;;;5.80;;
44516;SDS011;30223;17.182;-96.766;2023-02-10T01:03:17;9.40;;;5.97;;
44516;SDS011;30223;17.182;-96.766;2023-02-10T01:05:43;9.88;;;7.60;;
44516;SDS011;30223;17.182;-96.766;2023-02-10T01:08:11;8.23;;;6.20;;
44516;SDS011;30223;17.182;-96.766;2023-02-10T01:10:39;9.77;;;6.30;;
44516;SDS011;30223;17.182;-96.766;2023-02-10T01:13:07;9.30;;;5.85;;
44516;SDS011;30223;17.182;-96.766;2023-02-10T01:15:34;9.43;;;6.13;;
44516;SDS011;30223;17.182;-96.766;2023-02-10T01:18:01;7.80;;;5.68;;
44516;SDS011;30223;17.182;-96.766;2023-02-10T01:20:28;8.55;;;6.68;;
44516;SDS011;30223;17.182;-96.766;2023-02-10T01:22:55;9.88;;;6.85;;
44516;SDS011;30223;17.182;-96.766;2023-02-10T01:25:24;10.30;;;7.57;;
44516;SDS011;30223;17.182;-96.766;2023-02-10T01:27:51;10.05;;;7.45;;
44516;SDS011;30223;17.182;-96.766;2023-02-10T01:30:18;9.40;;;6.43;;
44516;SDS011;30223;17.182;-96.766;2023-02-10T01:32:44;9.07;;;6.45;;
44516;SDS011;30223;17.182;-96.766;2023-02-10T01:35:11;8.38;;;5.85;;
44516;SDS011;30223;17.182;-96.766;2023-02-10T01:37:38;9.02;;;5.90;;
44516;SDS011;30223;17.182;-96.766;2023-02-10T01:40:06;9.85;;;7.20;;
44516;SDS011;30223;17.182;-96.766;2023-02-10T01:42:33;10.48;;;6.38;;
44516;SDS011;30223;17.182;-96.766;2023-02-10T01:45:11;10.07;;;7.07;;
44516;SDS011;30223;17.182;-96.766;2023-02-10T01:47:40;13.90;;;7.32;;
44516;SDS011;30223;17.182;-96.766;2023-02-10T01:50:09;9.95;;;6.35;;
44516;SDS011;30223;17.182;-96.766;2023-02-10T01:52:37;10.38;;;6.50;;
44516;SDS011;30223;17.182;-96.766;2023-02-10T01:55:07;8.43;;;6.22;;
44516;SDS011;30223;17.182;-96.766;2023-02-10T01:57:38;8.35;;;5.85;;
44516;SDS011;30223;17.182;-96.766;2023-02-10T02:00:07;8.95;;;6.03;;
44516;SDS011;30223;17.182;-96.766;2023-02-10T02:02:35;9.88;;;7.05;;
44516;SDS011;30223;17.182;-96.766;2023-02-10T02:05:03;10.00;;;6.93;;
44516;SDS011;30223;17.182;-96.766;2023-02-10T02:07:32;11.65;;;8.07;;
44516;SDS011;30223;17.182;-96.766;2023-02-10T02:10:03;10.05;;;6.50;;
44516;SDS011;30223;17.182;-96.766;2023-02-10T02:12:44;11.65;;;6.43;;
44516;SDS011;30223;17.182;-96.766;2023-02-10T02:15:23;11.10;;;7.15;;
44516;SDS011;30223;17.182;-96.766;2023-02-10T02:20:52;12.52;;;7.10;;
44516;SDS011;30223;17.182;-96.766;2023-02-10T02:26:19;10.65;;;6.43;;
44516;SDS011;30223;17.182;-96.766;2023-02-10T02:32:14;11.15;;;6.90;;
44516;SDS011;30223;17.182;-96.766;2023-02-10T02:34:58;12.60;;;6.70;;
44516;SDS011;30223;17.182;-96.766;2023-02-10T02:37:50;9.88;;;6.45;;
44516;SDS011;30223;17.182;-96.766;2023-02-10T02:40:18;8.43;;;6.00;;
44516;SDS011;30223;17.182;-96.766;2023-02-10T02:42:45;8.35;;;5.80;;
44516;SDS011;30223;17.182;-96.766;2023-02-10T02:45:14;7.97;;;5.80;;
44516;SDS011;30223;17.182;-96.766;2023-02-10T03:01:00;8.05;;;5.30;;
44516;SDS011;30223;17.182;-96.766;2023-02-10T03:03:32;7.80;;;5.88;;
44516;SDS011;30223;17.182;-96.766;2023-02-10T03:06:00;8.88;;;5.78;;
44516;SDS011;30223;17.182;-96.766;2023-02-10T03:08:28;10.60;;;6.32;;
44516;SDS011;30223;17.182;-96.766;2023-02-10T03:10:58;10.35;;;6.80;;
44516;SDS011;30223;17.182;-96.766;2023-02-10T03:13:25;8.35;;;5.95;;
44516;SDS011;30223;17.182;-96.766;2023-02-10T03:15:51;12.50;;;7.50;;
44516;SDS011;30223;17.182;-96.766;2023-02-10T03:18:23;10.73;;;8.27;;
44516;SDS011;30223;17.182;-96.766;2023-02-10T03:20:49;15.10;;;7.25;;
44516;SDS011;30223;17.182;-96.766;2023-02-10T03:23:16;11.07;;;7.72;;
44516;SDS011;30223;17.182;-96.766;2023-02-10T03:25:46;13.95;;;8.20;;
44516;SDS011;30223;17.182;-96.766;2023-02-10T03:28:13;14.68;;;9.30;;
44516;SDS011;30223;17.182;-96.766;2023-02-10T03:30:40;13.15;;;8.70;;
44516;SDS011;30223;17.182;-96.766;2023-02-10T03:33:12;16.77;;;10.43;;
44516;SDS011;30223;17.182;-96.766;2023-02-10T03:35:39;15.32;;;10.70;;
44516;SDS011;30223;17.182;-96.766;2023-02-10T03:38:07;18.85;;;10.05;;
44516;SDS011;30223;17.182;-96.766;2023-02-10T03:40:34;13.90;;;9.13;;
44516;SDS011;30223;17.182;-96.766;2023-02-10T03:43:00;17.15;;;11.27;;
44516;SDS011;30223;17.182;-96.766;2023-02-10T03:45:27;16.67;;;9.65;;
44516;SDS011;30223;17.182;-96.766;2023-02-10T03:47:54;12.75;;;8.60;;
44516;SDS011;30223;17.182;-96.766;2023-02-10T03:50:21;15.63;;;9.43;;
44516;SDS011;30223;17.182;-96.766;2023-02-10T03:52:48;20.65;;;10.38;;
44516;SDS011;30223;17.182;-96.766;2023-02-10T03:55:15;17.20;;;9.85;;
44516;SDS011;30223;17.182;-96.766;2023-02-10T03:57:47;19.58;;;10.50;;
44516;SDS011;30223;17.182;-96.766;2023-02-10T04:00:14;17.92;;;10.25;;
44516;SDS011;30223;17.182;-96.766;2023-02-10T04:02:49;14.30;;;9.80;;
44516;SDS011;30223;17.182;-96.766;2023-02-10T04:05:15;15.07;;;9.75;;
44516;SDS011;30223;17.182;-96.766;2023-02-10T04:07:42;19.13;;;11.20;;
44516;SDS011;30223;17.182;-96.766;2023-02-10T04:10:09;18.75;;;9.98;;
44516;SDS011;30223;17.182;-96.766;2023-02-10T04:12:36;18.13;;;11.13;;
44516;SDS011;30223;17.182;-96.766;2023-02-10T04:15:04;17.70;;;10.13;;
44516;SDS011;30223;17.182;-96.766;2023-02-10T04:17:31;17.77;;;10.52;;
44516;SDS011;30223;17.182;-96.766;2023-02-10T04:19:58;18.52;;;10.13;;
44516;SDS011;30223;17.182;-96.766;2023-02-10T04:22:25;14.68;;;9.95;;
44516;SDS011;30223;17.182;-96.766;2023-02-10T04:24:52;19.13;;;10.98;;
44516;SDS011;30223;17.182;-96.766;2023-02-10T04:27:18;17.83;;;10.27;;
44516;SDS011;30223;17.182;-96.766;2023-02-10T04:29:45;20.83;;;10.95;;
44516;SDS011;30223;17.182;-96.766;2023-02-10T04:32:12;20.50;;;10.70;;
44516;SDS011;30223;17.182;-96.766;2023-02-10T04:34:38;23.85;;;10.98;;
44516;SDS011;30223;17.182;-96.766;2023-02-10T04:37:05;20.77;;;11.00;;
44516;SDS011;30223;17.182;-96.766;2023-02-10T04:39:32;16.40;;;9.93;;
44516;SDS011;30223;17.182;-96.766;2023-02-10T04:41:59;16.67;;;9.90;;
44516;SDS011;30223;17.182;-96.766;2023-02-10T04:44:25;18.00;;;11.30;;
44516;SDS011;30223;17.182;-96.766;2023-02-10T04:46:52;16.00;;;10.25;;
44516;SDS011;30223;17.182;-96.766;2023-02-10T04:49:19;20.30;;;12.25;;
44516;SDS011;30223;17.182;-96.766;2023-02-10T04:51:45;20.10;;;9.57;;
44516;SDS011;30223;17.182;-96.766;2023-02-10T04:54:13;18.95;;;10.93;;
44516;SDS011;30223;17.182;-96.766;2023-02-10T04:56:40;16.95;;;10.50;;
44516;SDS011;30223;17.182;-96.766;2023-02-10T04:59:07;16.20;;;10.90;;
44516;SDS011;30223;17.182;-96.766;2023-02-10T05:01:33;17.33;;;11.35;;
44516;SDS011;30223;17.182;-96.766;2023-02-10T05:04:00;15.27;;;10.02;;
44516;SDS011;30223;17.182;-96.766;2023-02-10T05:06:28;16.52;;;9.85;;
44516;SDS011;30223;17.182;-96.766;2023-02-10T05:08:58;15.40;;;9.27;;
44516;SDS011;30223;17.182;-96.766;2023-02-10T05:11:24;18.50;;;9.63;;
44516;SDS011;30223;17.182;-96.766;2023-02-10T05:13:51;16.83;;;10.40;;
44516;SDS011;30223;17.182;-96.766;2023-02-10T05:16:18;18.35;;;11.65;;
44516;SDS011;30223;17.182;-96.766;2023-02-10T05:18:44;18.67;;;10.27;;
44516;SDS011;30223;17.182;-96.766;2023-02-10T05:21:11;14.55;;;9.48;;
44516;SDS011;30223;17.182;-96.766;2023-02-10T05:23:39;17.52;;;10.13;;
44516;SDS011;30223;17.182;-96.766;2023-02-10T05:26:06;17.65;;;11.00;;
44516;SDS011;30223;17.182;-96.766;2023-02-10T05:28:33;15.32;;;9.07;;
44516;SDS011;30223;17.182;-96.766;2023-02-10T05:31:00;16.48;;;9.93;;
44516;SDS011;30223;17.182;-96.766;2023-02-10T05:33:30;18.65;;;10.70;;
44516;SDS011;30223;17.182;-96.766;2023-02-10T05:35:56;13.75;;;10.18;;
44516;SDS011;30223;17.182;-96.766;2023-02-10T05:38:23;14.73;;;8.95;;
44516;SDS011;30223;17.182;-96.766;2023-02-10T05:40:51;15.47;;;10.17;;
44516;SDS011;30223;17.182;-96.766;2023-02-10T05:43:18;16.70;;;10.13;;
44516;SDS011;30223;17.182;-96.766;2023-02-10T05:45:45;17.63;;;10.55;;
44516;SDS011;30223;17.182;-96.766;2023-02-10T05:48:12;15.80;;;10.50;;
44516;SDS011;30223;17.182;-96.766;2023-02-10T05:50:39;16.98;;;10.30;;
44516;SDS011;30223;17.182;-96.766;2023-02-10T05:53:06;16.27;;;9.23;;
44516;SDS011;30223;17.182;-96.766;2023-02-10T05:55:34;13.57;;;9.23;;
44516;SDS011;30223;17.182;-96.766;2023-02-10T05:58:00;15.45;;;9.35;;
44516;SDS011;30223;17.182;-96.766;2023-02-10T06:00:27;16.17;;;9.48;;
44516;SDS011;30223;17.182;-96.766;2023-02-10T06:02:54;16.05;;;9.80;;
44516;SDS011;30223;17.182;-96.766;2023-02-10T06:05:20;13.25;;;9.05;;
44516;SDS011;30223;17.182;-96.766;2023-02-10T06:07:47;13.95;;;9.55;;
44516;SDS011;30223;17.182;-96.766;2023-02-10T06:10:14;13.82;;;8.95;;
44516;SDS011;30223;17.182;-96.766;2023-02-10T06:12:40;12.90;;;8.27;;
44516;SDS011;30223;17.182;-96.766;2023-02-10T06:15:10;15.88;;;9.20;;
44516;SDS011;30223;17.182;-96.766;2023-02-10T06:17:36;13.02;;;9.65;;
44516;SDS011;30223;17.182;-96.766;2023-02-10T06:20:04;12.88;;;8.63;;
44516;SDS011;30223;17.182;-96.766;2023-02-10T06:22:31;13.55;;;9.10;;
44516;SDS011;30223;17.182;-96.766;2023-02-10T06:24:58;16.88;;;8.95;;
44516;SDS011;30223;17.182;-96.766;2023-02-10T06:27:25;16.15;;;8.73;;
44516;SDS011;30223;17.182;-96.766;2023-02-10T06:29:53;11.93;;;7.28;;
44516;SDS011;30223;17.182;-96.766;2023-02-10T06:32:20;12.43;;;9.10;;
44516;SDS011;30223;17.182;-96.766;2023-02-10T06:34:47;16.80;;;9.63;;
44516;SDS011;30223;17.182;-96.766;2023-02-10T06:37:14;11.25;;;8.23;;
44516;SDS011;30223;17.182;-96.766;2023-02-10T06:39:40;14.07;;;7.95;;
44516;SDS011;30223;17.182;-96.766;2023-02-10T06:42:07;12.93;;;8.40;;
44516;SDS011;30223;17.182;-96.766;2023-02-10T06:44:34;13.50;;;8.25;;
44516;SDS011;30223;17.182;-96.766;2023-02-10T06:47:00;11.68;;;8.02;;
44516;SDS011;30223;17.182;-96.766;2023-02-10T06:49:27;13.23;;;8.60;;
44516;SDS011;30223;17.182;-96.766;2023-02-10T06:51:54;14.90;;;8.70;;
44516;SDS011;30223;17.182;-96.766;2023-02-10T06:54:20;12.25;;;7.75;;
44516;SDS011;30223;17.182;-96.766;2023-02-10T06:56:48;12.45;;;8.18;;
44516;SDS011;30223;17.182;-96.766;2023-02-10T06:59:15;12.73;;;8.98;;
44516;SDS011;30223;17.182;-96.766;2023-02-10T07:01:42;14.45;;;8.60;;
44516;SDS011;30223;17.182;-96.766;2023-02-10T07:04:08;13.75;;;9.20;;
44516;SDS011;30223;17.182;-96.766;2023-02-10T07:06:35;13.65;;;7.68;;
44516;SDS011;30223;17.182;-96.766;2023-02-10T07:09:03;15.02;;;8.90;;
44516;SDS011;30223;17.182;-96.766;2023-02-10T07:11:30;12.30;;;9.07;;
44516;SDS011;30223;17.182;-96.766;2023-02-10T07:13:58;12.77;;;8.52;;
44516;SDS011;30223;17.182;-96.766;2023-02-10T07:16:25;13.63;;;8.30;;
44516;SDS011;30223;17.182;-96.766;2023-02-10T07:18:53;12.63;;;7.68;;
44516;SDS011;30223;17.182;-96.766;2023-02-10T07:21:19;10.75;;;7.70;;
44516;SDS011;30223;17.182;-96.766;2023-02-10T07:23:46;10.73;;;7.90;;
44516;SDS011;30223;17.182;-96.766;2023-02-10T07:26:13;10.05;;;7.90;;
44516;SDS011;30223;17.182;-96.766;2023-02-10T07:28:43;11.93;;;7.78;;
44516;SDS011;30223;17.182;-96.766;2023-02-10T07:31:10;11.05;;;7.57;;
44516;SDS011;30223;17.182;-96.766;2023-02-10T07:33:37;11.82;;;8.38;;
44516;SDS011;30223;17.182;-96.766;2023-02-10T07:36:04;11.75;;;8.02;;
44516;SDS011;30223;17.182;-96.766;2023-02-10T07:38:31;13.65;;;8.95;;
44516;SDS011;30223;17.182;-96.766;2023-02-10T07:40:58;11.52;;;7.85;;
44516;SDS011;30223;17.182;-96.766;2023-02-10T07:43:25;10.75;;;7.63;;
44516;SDS011;30223;17.182;-96.766;2023-02-10T07:45:51;11.88;;;7.32;;
44516;SDS011;30223;17.182;-96.766;2023-02-10T07:48:18;15.00;;;7.88;;
44516;SDS011;30223;17.182;-96.766;2023-02-10T07:50:48;11.82;;;8.18;;
44516;SDS011;30223;17.182;-96.766;2023-02-10T07:53:19;10.10;;;7.57;;
44516;SDS011;30223;17.182;-96.766;2023-02-10T07:55:47;11.52;;;7.20;;
44516;SDS011;30223;17.182;-96.766;2023-02-10T07:58:14;10.20;;;7.93;;
44516;SDS011;30223;17.182;-96.766;2023-02-10T08:00:41;10.02;;;7.35;;
44516;SDS011;30223;17.182;-96.766;2023-02-10T08:03:10;13.88;;;10.07;;
44516;SDS011;30223;17.182;-96.766;2023-02-10T08:05:39;15.18;;;7.85;;
44516;SDS011;30223;17.182;-96.766;2023-02-10T08:08:10;11.77;;;7.90;;
44516;SDS011;30223;17.182;-96.766;2023-02-10T08:10:37;9.50;;;7.45;;
44516;SDS011;30223;17.182;-96.766;2023-02-10T08:13:04;9.25;;;6.75;;
44516;SDS011;30223;17.182;-96.766;2023-02-10T08:15:31;11.32;;;7.82;;
44516;SDS011;30223;17.182;-96.766;2023-02-10T08:17:58;12.07;;;7.05;;
44516;SDS011;30223;17.182;-96.766;2023-02-10T08:20:26;10.13;;;6.85;;
44516;SDS011;30223;17.182;-96.766;2023-02-10T08:22:53;12.30;;;7.47;;
44516;SDS011;30223;17.182;-96.766;2023-02-10T08:25:20;11.18;;;7.75;;
44516;SDS011;30223;17.182;-96.766;2023-02-10T08:27:47;10.43;;;7.57;;
44516;SDS011;30223;17.182;-96.766;2023-02-10T08:30:14;12.07;;;6.97;;
44516;SDS011;30223;17.182;-96.766;2023-02-10T08:32:41;12.27;;;8.05;;
44516;SDS011;30223;17.182;-96.766;2023-02-10T08:35:07;9.57;;;6.88;;
44516;SDS011;30223;17.182;-96.766;2023-02-10T08:37:34;12.23;;;7.20;;
44516;SDS011;30223;17.182;-96.766;2023-02-10T08:40:02;13.48;;;6.80;;
44516;SDS011;30223;17.182;-96.766;2023-02-10T08:42:31;11.35;;;7.90;;
44516;SDS011;30223;17.182;-96.766;2023-02-10T08:44:58;12.35;;;7.88;;
44516;SDS011;30223;17.182;-96.766;2023-02-10T08:47:25;12.02;;;7.00;;
44516;SDS011;30223;17.182;-96.766;2023-02-10T08:49:52;13.40;;;7.90;;
44516;SDS011;30223;17.182;-96.766;2023-02-10T08:52:19;10.57;;;7.50;;
44516;SDS011;30223;17.182;-96.766;2023-02-10T08:54:48;10.88;;;6.53;;
44516;SDS011;30223;17.182;-96.766;2023-02-10T08:57:15;11.57;;;7.47;;
44516;SDS011;30223;17.182;-96.766;2023-02-10T08:59:42;10.50;;;7.60;;
44516;SDS011;30223;17.182;-96.766;2023-02-10T09:02:12;14.20;;;7.78;;
44516;SDS011;30223;17.182;-96.766;2023-02-10T09:04:39;10.60;;;7.07;;
44516;SDS011;30223;17.182;-96.766;2023-02-10T09:07:06;10.57;;;6.95;;
44516;SDS011;30223;17.182;-96.766;2023-02-10T09:09:36;10.10;;;7.15;;
44516;SDS011;30223;17.182;-96.766;2023-02-10T09:12:04;13.10;;;8.27;;
44516;SDS011;30223;17.182;-96.766;2023-02-10T09:14:31;9.95;;;6.57;;
44516;SDS011;30223;17.182;-96.766;2023-02-10T09:16:58;10.98;;;7.22;;
44516;SDS011;30223;17.182;-96.766;2023-02-10T09:19:24;12.57;;;7.57;;
44516;SDS011;30223;17.182;-96.766;2023-02-10T09:21:51;11.45;;;7.90;;
44516;SDS011;30223;17.182;-96.766;2023-02-10T09:24:18;11.43;;;7.50;;
44516;SDS011;30223;17.182;-96.766;2023-02-10T09:26:44;12.98;;;7.43;;
44516;SDS011;30223;17.182;-96.766;2023-02-10T09:29:11;12.48;;;7.28;;
44516;SDS011;30223;17.182;-96.766;2023-02-10T09:31:38;9.73;;;6.60;;
44516;SDS011;30223;17.182;-96.766;2023-02-10T09:34:05;9.27;;;6.40;;
44516;SDS011;30223;17.182;-96.766;2023-02-10T09:36:32;9.60;;;6.25;;
44516;SDS011;30223;17.182;-96.766;2023-02-10T09:38:59;11.50;;;6.35;;
44516;SDS011;30223;17.182;-96.766;2023-02-10T09:41:31;9.35;;;6.05;;
44516;SDS011;30223;17.182;-96.766;2023-02-10T09:44:15;9.50;;;6.03;;
44516;SDS011;30223;17.182;-96.766;2023-02-10T09:47:06;9.63;;;6.72;;
44516;SDS011;30223;17.182;-96.766;2023-02-10T09:50:02;8.60;;;6.45;;
44516;SDS011;30223;17.182;-96.766;2023-02-10T09:55:29;9.65;;;6.75;;
44516;SDS011;30223;17.182;-96.766;2023-02-10T09:58:03;12.77;;;7.45;;
44516;SDS011;30223;17.182;-96.766;2023-02-10T10:00:40;11.85;;;7.90;;
44516;SDS011;30223;17.182;-96.766;2023-02-10T10:05:47;9.90;;;6.72;;
44516;SDS011;30223;17.182;-96.766;2023-02-10T10:19:52;10.77;;;6.50;;
44516;SDS011;30223;17.182;-96.766;2023-02-10T10:23:05;9.13;;;6.20;;
44516;SDS011;30223;17.182;-96.766;2023-02-10T10:29:06;9.52;;;6.20;;
44516;SDS011;30223;17.182;-96.766;2023-02-10T10:31:43;9.85;;;6.93;;
44516;SDS011;30223;17.182;-96.766;2023-02-10T10:34:18;11.45;;;6.55;;
44516;SDS011;30223;17.182;-96.766;2023-02-10T10:36:50;9.80;;;6.40;;
44516;SDS011;30223;17.182;-96.766;2023-02-10T10:39:29;8.52;;;5.97;;
44516;SDS011;30223;17.182;-96.766;2023-02-10T10:42:23;9.57;;;6.70;;
44516;SDS011;30223;17.182;-96.766;2023-02-10T10:45:06;10.48;;;6.85;;
44516;SDS011;30223;17.182;-96.766;2023-02-10T10:47:54;9.48;;;6.13;;
44516;SDS011;30223;17.182;-96.766;2023-02-10T10:50:22;10.18;;;6.28;;
44516;SDS011;30223;17.182;-96.766;2023-02-10T10:52:51;8.38;;;5.65;;
44516;SDS011;30223;17.182;-96.766;2023-02-10T10:55:24;8.90;;;5.68;;
44516;SDS011;30223;17.182;-96.766;2023-02-10T10:58:01;7.65;;;4.93;;
44516;SDS011;30223;17.182;-96.766;2023-02-10T11:00:35;8.95;;;5.63;;
44516;SDS011;30223;17.182;-96.766;2023-02-10T11:03:02;8.07;;;5.38;;
44516;SDS011;30223;17.182;-96.766;2023-02-10T11:05:35;8.63;;;5.80;;
44516;SDS011;30223;17.182;-96.766;2023-02-10T11:08:04;12.52;;;7.10;;
44516;SDS011;30223;17.182;-96.766;2023-02-10T11:13:04;8.55;;;5.70;;
44516;SDS011;30223;17.182;-96.766;2023-02-10T11:15:35;10.25;;;6.32;;
44516;SDS011;30223;17.182;-96.766;2023-02-10T11:18:18;10.55;;;6.03;;
44516;SDS011;30223;17.182;-96.766;2023-02-10T11:21:00;10.63;;;5.93;;
44516;SDS011;30223;17.182;-96.766;2023-02-10T11:23:29;8.57;;;5.53;;
44516;SDS011;30223;17.182;-96.766;2023-02-10T11:26:00;9.02;;;5.93;;
44516;SDS011;30223;17.182;-96.766;2023-02-10T11:28:34;9.77;;;5.78;;
44516;SDS011;30223;17.182;-96.766;2023-02-10T11:31:03;9.25;;;6.22;;
44516;SDS011;30223;17.182;-96.766;2023-02-10T11:33:42;7.68;;;5.38;;
44516;SDS011;30223;17.182;-96.766;2023-02-10T11:36:27;8.30;;;5.53;;
44516;SDS011;30223;17.182;-96.766;2023-02-10T11:38:59;9.10;;;6.10;;
44516;SDS011;30223;17.182;-96.766;2023-02-10T11:41:42;10.00;;;5.78;;
44516;SDS011;30223;17.182;-96.766;2023-02-10T11:44:25;12.63;;;6.18;;
44516;SDS011;30223;17.182;-96.766;2023-02-10T11:47:00;8.75;;;6.18;;
44516;SDS011;30223;17.182;-96.766;2023-02-10T11:49:34;10.07;;;6.20;;
44516;SDS011;30223;17.182;-96.766;2023-02-10T11:52:04;8.25;;;5.63;;
44516;SDS011;30223;17.182;-96.766;2023-02-10T11:54:31;8.18;;;5.40;;
44516;SDS011;30223;17.182;-96.766;2023-02-10T12:00:05;10.32;;;6.00;;
44516;SDS011;30223;17.182;-96.766;2023-02-10T12:02:50;9.10;;;6.53;;
44516;SDS011;30223;17.182;-96.766;2023-02-10T12:08:09;7.47;;;5.50;;
44516;SDS011;30223;17.182;-96.766;2023-02-10T12:10:56;8.27;;;5.38;;
44516;SDS011;30223;17.182;-96.766;2023-02-10T12:16:04;8.90;;;6.03;;
44516;SDS011;30223;17.182;-96.766;2023-02-10T12:19:06;7.60;;;5.30;;
44516;SDS011;30223;17.182;-96.766;2023-02-10T12:24:25;7.47;;;4.95;;
44516;SDS011;30223;17.182;-96.766;2023-02-10T12:26:59;6.03;;;4.32;;
44516;SDS011;30223;17.182;-96.766;2023-02-10T12:29:55;7.82;;;5.47;;
44516;SDS011;30223;17.182;-96.766;2023-02-10T12:35:39;7.70;;;5.43;;
44516;SDS011;30223;17.182;-96.766;2023-02-10T12:41:06;10.75;;;5.90;;
44516;SDS011;30223;17.182;-96.766;2023-02-10T12:57:43;8.07;;;5.30;;
44516;SDS011;30223;17.182;-96.766;2023-02-10T13:06:17;6.05;;;3.88;;
44516;SDS011;30223;17.182;-96.766;2023-02-10T13:11:44;8.77;;;5.43;;
44516;SDS011;30223;17.182;-96.766;2023-02-10T13:14:30;6.28;;;4.13;;
44516;SDS011;30223;17.182;-96.766;2023-02-10T13:16:59;8.27;;;4.30;;
44516;SDS011;30223;17.182;-96.766;2023-02-10T13:22:19;7.82;;;5.00;;
44516;SDS011;30223;17.182;-96.766;2023-02-10T13:27:32;9.68;;;6.10;;
44516;SDS011;30223;17.182;-96.766;2023-02-10T13:35:41;10.60;;;5.97;;
44516;SDS011;30223;17.182;-96.766;2023-02-10T13:38:13;8.70;;;5.00;;
44516;SDS011;30223;17.182;-96.766;2023-02-10T13:40:54;6.35;;;4.22;;
44516;SDS011;30223;17.182;-96.766;2023-02-10T13:43:42;9.07;;;6.15;;
44516;SDS011;30223;17.182;-96.766;2023-02-10T13:46:25;7.00;;;4.72;;
44516;SDS011;30223;17.182;-96.766;2023-02-10T13:48:55;6.93;;;4.22;;
44516;SDS011;30223;17.182;-96.766;2023-02-10T13:51:32;9.88;;;5.22;;
44516;SDS011;30223;17.182;-96.766;2023-02-10T13:54:01;6.70;;;4.95;;
44516;SDS011;30223;17.182;-96.766;2023-02-10T13:56:29;9.60;;;5.28;;
44516;SDS011;30223;17.182;-96.766;2023-02-10T13:58:58;8.32;;;4.68;;
44516;SDS011;30223;17.182;-96.766;2023-02-10T14:06:47;7.57;;;4.55;;
44516;SDS011;30223;17.182;-96.766;2023-02-10T14:12:00;6.00;;;4.15;;
44516;SDS011;30223;17.182;-96.766;2023-02-10T14:19:46;8.73;;;5.15;;
44516;SDS011;30223;17.182;-96.766;2023-02-10T14:22:27;9.88;;;5.68;;
44516;SDS011;30223;17.182;-96.766;2023-02-10T14:27:54;7.45;;;4.75;;
44516;SDS011;30223;17.182;-96.766;2023-02-10T14:30:23;10.50;;;6.13;;
44516;SDS011;30223;17.182;-96.766;2023-02-10T14:32:49;6.28;;;5.15;;
44516;SDS011;30223;17.182;-96.766;2023-02-10T14:35:18;8.13;;;5.55;;
44516;SDS011;30223;17.182;-96.766;2023-02-10T14:37:51;7.70;;;5.43;;
44516;SDS011;30223;17.182;-96.766;2023-02-10T14:40:20;9.45;;;5.63;;
44516;SDS011;30223;17.182;-96.766;2023-02-10T14:42:48;10.70;;;5.82;;
44516;SDS011;30223;17.182;-96.766;2023-02-10T14:45:19;8.13;;;5.72;;
44516;SDS011;30223;17.182;-96.766;2023-02-10T14:47:54;12.05;;;5.00;;
44516;SDS011;30223;17.182;-96.766;2023-02-10T14:52:51;8.13;;;4.47;;
44516;SDS011;30223;17.182;-96.766;2023-02-10T14:55:37;7.57;;;4.97;;
44516;SDS011;30223;17.182;-96.766;2023-02-10T14:58:11;7.43;;;4.85;;
44516;SDS011;30223;17.182;-96.766;2023-02-10T15:00:40;7.43;;;4.65;;
44516;SDS011;30223;17.182;-96.766;2023-02-10T15:03:17;6.63;;;4.95;;
44516;SDS011;30223;17.182;-96.766;2023-02-10T15:05:46;10.20;;;6.28;;
44516;SDS011;30223;17.182;-96.766;2023-02-10T15:08:16;7.85;;;4.85;;
44516;SDS011;30223;17.182;-96.766;2023-02-10T15:10:47;7.28;;;4.32;;
44516;SDS011;30223;17.182;-96.766;2023-02-10T15:13:19;5.75;;;4.07;;
44516;SDS011;30223;17.182;-96.766;2023-02-10T15:15:49;10.63;;;5.25;;
44516;SDS011;30223;17.182;-96.766;2023-02-10T15:18:19;10.18;;;5.38;;
44516;SDS011;30223;17.182;-96.766;2023-02-10T15:20:56;7.63;;;4.97;;
44516;SDS011;30223;17.182;-96.766;2023-02-10T15:23:28;10.18;;;5.30;;
44516;SDS011;30223;17.182;-96.766;2023-02-10T15:29:08;9.40;;;4.90;;
44516;SDS011;30223;17.182;-96.766;2023-02-10T15:31:36;8.13;;;5.43;;
44516;SDS011;30223;17.182;-96.766;2023-02-10T15:34:17;8.25;;;5.22;;
44516;SDS011;30223;17.182;-96.766;2023-02-10T15:36:50;7.47;;;4.00;;
44516;SDS011;30223;17.182;-96.766;2023-02-10T15:41:58;10.75;;;5.32;;
44516;SDS011;30223;17.182;-96.766;2023-02-10T15:44:30;6.97;;;4.65;;
44516;SDS011;30223;17.182;-96.766;2023-02-10T15:47:18;6.10;;;4.50;;
44516;SDS011;30223;17.182;-96.766;2023-02-10T15:49:48;6.60;;;4.38;;
44516;SDS011;30223;17.182;-96.766;2023-02-10T15:52:28;8.35;;;5.25;;
44516;SDS011;30223;17.182;-96.766;2023-02-10T15:55:01;8.80;;;5.72;;
44516;SDS011;30223;17.182;-96.766;2023-02-10T15:57:31;5.97;;;4.07;;
44516;SDS011;30223;17.182;-96.766;2023-02-10T15:59:58;7.35;;;4.60;;
44516;SDS011;30223;17.182;-96.766;2023-02-10T16:02:24;7.25;;;4.90;;
44516;SDS011;30223;17.182;-96.766;2023-02-10T16:04:52;7.80;;;4.97;;
44516;SDS011;30223;17.182;-96.766;2023-02-10T16:07:23;7.32;;;4.28;;
44516;SDS011;30223;17.182;-96.766;2023-02-10T16:09:54;6.90;;;4.50;;
44516;SDS011;30223;17.182;-96.766;2023-02-10T16:12:21;6.22;;;4.30;;
44516;SDS011;30223;17.182;-96.766;2023-02-10T16:14:49;7.32;;;4.63;;
44516;SDS011;30223;17.182;-96.766;2023-02-10T16:17:20;7.28;;;4.80;;
44516;SDS011;30223;17.182;-96.766;2023-02-10T16:19:49;6.78;;;5.50;;
44516;SDS011;30223;17.182;-96.766;2023-02-10T16:22:16;7.13;;;4.60;;
44516;SDS011;30223;17.182;-96.766;2023-02-10T16:24:43;7.65;;;5.03;;
44516;SDS011;30223;17.182;-96.766;2023-02-10T16:27:13;6.68;;;4.40;;
44516;SDS011;30223;17.182;-96.766;2023-02-10T16:29:40;10.75;;;5.07;;
44516;SDS011;30223;17.182;-96.766;2023-02-10T16:32:07;6.50;;;4.07;;
44516;SDS011;30223;17.182;-96.766;2023-02-10T16:34:36;7.90;;;4.18;;
44516;SDS011;30223;17.182;-96.766;2023-02-10T16:37:03;6.65;;;4.25;;